LiveATC.Net - Listen to live air traffic control over the Internet! Contact LiveATC.net for advertising information


ICAO: KGQQ  IATA: GQQ   Airport: Galion Municipal Airport
City: Galion   State/Province: Ohio
Country: United States   Continent: North America
KMFD METAR Weather: KMFD 301352Z 30006KT 10SM CLR 06/04 A3014 RMK AO2 SLP212 T00560039
KGQQ Flight Activity (FlightAware)
KGQQ Airport Info   (AirNav) (iFlightPlanner)
KGQQ CTAF/Del/App
Feed Status: DOWN
Last heard on: 2014-10-29 19:54:03 (0 days 18 hours 32 minutes ago)
KGQQ CTAF/Del/App Audio Archives
FacilityFrequency
Galion Clearance Delivery126.800
Galion CTAF/UNICOM122.800
Mansfield Approach124.200


NOTICE

Unauthorized use prohibited. See LiveATC.net Terms of Service


Find LiveATC Audio Streams


Airport/ARTCC Code

Frequency
(e.g., 124.400, 128.75)
Site-wide search

Browse LiveATC Feeds
LiveATC Coverage Map
Top 50 LiveATC Feeds
Bad Weather Areas

LiveATC FAQ
Offer a LiveATC Feed
Contact LiveATC.net
Press Inquiries

LiveATC on iPhone
LiveATC on Android

LiveATC Mobile
(Mobile browser)

ATC Audio Archives
Interesting Recordings

LiveATC Forums


Home Page
About LiveATC.net
Make a Donation
LiveATC Bookstore

Terms of Use
Privacy Policy

ATC/Radar Sites
U.S. ARTCC Freqs
Canadian Air Freqs

AIRMETs/SIGMETs

FAA Airport Status
Nat'l Airspace Status
Arrival Demand Charts


Server Software By:
Icecast.org
Liquidsoap

Please make a donation to help us keep growing!